createdAt,value
2023-03-25T00:00:07.451Z,0
2023-03-25T00:03:07.564Z,0
2023-03-25T00:06:07.480Z,0
2023-03-25T00:09:07.334Z,0
2023-03-25T00:12:07.380Z,0
2023-03-25T00:15:07.465Z,0
2023-03-25T00:18:07.621Z,0
2023-03-25T00:21:07.425Z,0
2023-03-25T00:24:07.795Z,0
2023-03-25T00:27:07.428Z,0
2023-03-25T00:30:07.426Z,0
2023-03-25T00:33:07.573Z,0
2023-03-25T00:36:07.586Z,0
2023-03-25T00:39:07.337Z,0
2023-03-25T00:42:07.390Z,0
2023-03-25T00:45:07.349Z,0
2023-03-25T00:48:10.733Z,0
2023-03-25T00:51:07.415Z,0
2023-03-25T00:54:07.487Z,0
2023-03-25T00:57:07.590Z,0
2023-03-25T01:00:07.444Z,0
2023-03-25T01:03:07.796Z,0
2023-03-25T01:06:07.547Z,0
2023-03-25T01:09:07.456Z,0
2023-03-25T01:12:07.345Z,0
2023-03-25T01:15:07.418Z,0
2023-03-25T01:18:07.670Z,0
2023-03-25T01:21:07.315Z,0
2023-03-25T01:24:07.400Z,0
2023-03-25T01:27:07.344Z,0
2023-03-25T01:30:07.395Z,0
2023-03-25T01:33:07.526Z,0
2023-03-25T01:36:07.472Z,0
2023-03-25T01:39:07.324Z,0
2023-03-25T01:42:07.347Z,0
2023-03-25T01:45:07.427Z,0
2023-03-25T01:48:07.401Z,0
2023-03-25T01:51:07.337Z,0
2023-03-25T01:54:07.336Z,0
2023-03-25T01:57:07.786Z,0
2023-03-25T02:00:07.360Z,0
2023-03-25T02:03:07.541Z,0
2023-03-25T02:06:07.405Z,0
2023-03-25T02:09:07.388Z,0
2023-03-25T02:12:07.406Z,0
2023-03-25T02:15:07.437Z,0
2023-03-25T02:18:07.520Z,0
2023-03-25T02:21:07.330Z,0
2023-03-25T02:24:07.363Z,0
2023-03-25T02:27:07.332Z,0
2023-03-25T02:30:07.412Z,0
2023-03-25T02:33:07.716Z,0
2023-03-25T02:36:07.631Z,0
2023-03-25T02:39:07.345Z,0
2023-03-25T02:42:07.388Z,0
2023-03-25T02:45:07.383Z,0
2023-03-25T02:48:07.744Z,0
2023-03-25T02:51:07.314Z,0
2023-03-25T02:54:07.310Z,0
2023-03-25T02:57:07.688Z,0
2023-03-25T03:00:07.403Z,0
2023-03-25T03:03:08.626Z,0
2023-03-25T03:06:07.355Z,0
2023-03-25T03:09:07.444Z,0
2023-03-25T03:12:07.462Z,0
2023-03-25T03:15:07.429Z,0
2023-03-25T03:18:08.139Z,0
2023-03-25T03:21:07.450Z,0
2023-03-25T03:24:07.405Z,0
2023-03-25T03:27:07.296Z,0
2023-03-25T03:30:07.586Z,0
2023-03-25T03:33:07.670Z,0
2023-03-25T03:36:07.549Z,0
2023-03-25T03:39:07.327Z,0
2023-03-25T03:42:07.431Z,0
2023-03-25T03:45:07.410Z,0
2023-03-25T03:48:07.581Z,0
2023-03-25T03:51:07.324Z,0
2023-03-25T03:54:07.384Z,0
2023-03-25T03:57:07.604Z,0
2023-03-25T04:00:07.384Z,0
2023-03-25T04:03:07.817Z,0
2023-03-25T04:06:07.353Z,0
2023-03-25T04:09:07.433Z,0
2023-03-25T04:12:07.340Z,0
2023-03-25T04:15:07.411Z,0
2023-03-25T04:18:07.526Z,0
2023-03-25T04:21:07.338Z,0
2023-03-25T04:24:07.308Z,0
2023-03-25T04:27:07.329Z,0
2023-03-25T04:30:07.353Z,0
2023-03-25T04:33:07.803Z,0
2023-03-25T04:36:07.497Z,0
2023-03-25T04:39:07.415Z,3
2023-03-25T04:42:07.334Z,3
2023-03-25T04:45:07.442Z,7
2023-03-25T04:48:07.617Z,10
2023-03-25T04:51:07.360Z,17
2023-03-25T04:54:07.403Z,27
2023-03-25T04:57:07.536Z,37
2023-03-25T05:00:07.412Z,57
2023-03-25T05:03:07.469Z,90
2023-03-25T05:06:07.388Z,143
2023-03-25T05:09:07.314Z,213
2023-03-25T05:12:07.419Z,287
2023-03-25T05:15:07.415Z,363
2023-03-25T05:18:07.611Z,453
2023-03-25T05:21:07.516Z,610
2023-03-25T05:24:07.362Z,807
2023-03-25T05:27:07.363Z,910
2023-03-25T05:30:07.460Z,927
2023-03-25T05:33:07.626Z,1003
2023-03-25T05:36:07.572Z,1237
2023-03-25T05:39:07.377Z,1243
2023-03-25T05:42:07.373Z,1293
2023-03-25T05:45:07.582Z,1517
2023-03-25T05:48:07.954Z,1947
2023-03-25T05:51:07.382Z,1873
2023-03-25T05:54:07.383Z,1920
2023-03-25T05:57:07.540Z,2437
2023-03-25T06:00:07.474Z,2390
2023-03-25T06:03:08.200Z,1967
2023-03-25T06:06:07.409Z,1577
2023-03-25T06:09:07.410Z,1280
2023-03-25T06:12:07.435Z,1607
2023-03-25T06:15:07.380Z,2287
2023-03-25T06:18:07.659Z,3070
2023-03-25T06:21:07.446Z,2793
2023-03-25T06:24:07.478Z,2693
2023-03-25T06:27:07.444Z,3153
2023-03-25T06:30:07.541Z,8243
2023-03-25T06:33:07.900Z,6743
2023-03-25T06:36:07.635Z,5360
2023-03-25T06:39:07.476Z,5150
2023-03-25T06:42:07.402Z,6893
2023-03-25T06:45:07.486Z,6487
2023-03-25T06:48:07.551Z,6523
2023-03-25T06:51:07.390Z,6823
2023-03-25T06:54:07.468Z,8253
2023-03-25T06:57:07.669Z,7760
2023-03-25T07:00:07.492Z,4873
2023-03-25T07:03:07.714Z,5823
2023-03-25T07:06:07.461Z,10243
2023-03-25T07:09:07.393Z,14187
2023-03-25T07:12:09.904Z,8403
2023-03-25T07:15:07.388Z,7813
2023-03-25T07:18:07.684Z,7833
2023-03-25T07:21:07.409Z,8200
2023-03-25T07:24:07.412Z,9540
2023-03-25T07:27:07.447Z,12207
2023-03-25T07:30:07.428Z,12320
2023-03-25T07:33:07.515Z,12927
2023-03-25T07:36:07.574Z,21870
2023-03-25T07:39:07.438Z,14333
2023-03-25T07:42:07.410Z,13833
2023-03-25T07:45:07.469Z,18710
2023-03-25T07:48:07.620Z,15760
2023-03-25T07:51:07.375Z,11147
2023-03-25T07:54:12.988Z,12047
2023-03-25T07:57:07.715Z,15720
2023-03-25T08:00:07.925Z,12310
2023-03-25T08:03:07.893Z,12980
2023-03-25T08:06:07.414Z,33483
2023-03-25T08:09:07.379Z,30510
2023-03-25T08:12:07.431Z,16477
2023-03-25T08:15:07.542Z,23277
2023-03-25T08:18:07.705Z,20543
2023-03-25T08:21:07.422Z,22043
2023-03-25T08:24:07.386Z,20080
2023-03-25T08:27:21.312Z,42240
2023-03-25T08:30:07.409Z,19020
2023-03-25T08:33:07.561Z,24510
2023-03-25T08:36:07.646Z,23143
2023-03-25T08:39:07.402Z,17397
2023-03-25T08:42:07.349Z,13227
2023-03-25T08:45:07.516Z,13730
2023-03-25T08:48:07.698Z,18177
2023-03-25T08:51:07.436Z,31153
2023-03-25T08:54:07.392Z,26223
2023-03-25T08:57:07.661Z,26757
2023-03-25T09:00:07.403Z,12573
2023-03-25T09:03:07.855Z,24947
2023-03-25T09:06:07.387Z,25367
2023-03-25T09:09:07.332Z,23937
2023-03-25T09:12:07.391Z,20073
2023-03-25T09:15:07.430Z,18397
2023-03-25T09:18:07.622Z,18497
2023-03-25T09:21:07.388Z,23013
2023-03-25T09:24:07.409Z,17287
2023-03-25T09:27:07.411Z,26943
2023-03-25T09:30:07.520Z,15213
2023-03-25T09:33:07.756Z,11523
2023-03-25T09:36:07.568Z,11473
2023-03-25T09:39:07.437Z,12163
2023-03-25T09:42:07.372Z,10260
2023-03-25T09:45:19.028Z,8980
2023-03-25T09:48:07.627Z,8730
2023-03-25T09:51:07.365Z,13183
2023-03-25T09:54:07.383Z,23673
2023-03-25T09:57:07.556Z,25757
2023-03-25T10:00:07.508Z,18490
2023-03-25T10:03:07.498Z,13777
2023-03-25T10:06:07.399Z,6717
2023-03-25T10:09:07.371Z,9353
2023-03-25T10:12:07.430Z,8137
2023-03-25T10:15:07.403Z,13160
2023-03-25T10:18:07.615Z,31043
2023-03-25T10:21:07.350Z,21480
2023-03-25T10:24:07.352Z,18143
2023-03-25T10:27:07.416Z,16503
2023-03-25T10:30:07.433Z,12980
2023-03-25T10:33:07.580Z,19567
2023-03-25T10:36:07.555Z,21530
2023-03-25T10:39:07.578Z,26840
2023-03-25T10:42:07.696Z,29593
2023-03-25T10:45:07.503Z,59770
2023-03-25T10:48:07.586Z,58123
2023-03-25T10:51:07.430Z,56783
2023-03-25T10:54:07.381Z,57587
2023-03-25T10:57:07.693Z,61103
2023-03-25T11:00:07.508Z,32363
2023-03-25T11:03:07.838Z,59877
2023-03-25T11:06:07.394Z,23120
2023-03-25T11:09:07.366Z,25323
2023-03-25T11:12:07.430Z,15403
2023-03-25T11:15:07.458Z,18257
2023-03-25T11:18:07.758Z,15940
2023-03-25T11:21:07.436Z,11827
2023-03-25T11:24:07.428Z,13073
2023-03-25T11:27:07.339Z,13927
2023-03-25T11:30:07.486Z,57017
2023-03-25T11:33:09.365Z,56530
2023-03-25T11:36:07.583Z,55217
2023-03-25T11:39:08.287Z,36543
2023-03-25T11:42:07.439Z,64293
2023-03-25T11:45:07.501Z,61993
2023-03-25T11:48:07.693Z,71160
2023-03-25T11:51:07.386Z,53510
2023-03-25T11:54:07.439Z,32907
2023-03-25T11:57:07.573Z,62373
2023-03-25T12:00:07.524Z,50013
2023-03-25T12:03:08.049Z,20910
2023-03-25T12:06:07.952Z,14300
2023-03-25T12:09:07.424Z,70480
2023-03-25T12:12:07.396Z,40490
2023-03-25T12:15:07.435Z,60087
2023-03-25T12:18:07.606Z,26550
2023-03-25T12:21:07.400Z,22820
2023-03-25T12:24:07.512Z,21580
2023-03-25T12:27:07.394Z,12910
2023-03-25T12:30:07.485Z,12170
2023-03-25T12:33:07.666Z,25957
2023-03-25T12:36:07.426Z,24133
2023-03-25T12:39:07.401Z,17057
2023-03-25T12:42:07.372Z,16260
2023-03-25T12:45:07.476Z,55210
2023-03-25T12:48:07.589Z,46167
2023-03-25T12:51:07.400Z,24313
2023-03-25T12:54:07.408Z,57623
2023-03-25T12:57:07.737Z,39607
2023-03-25T13:00:07.581Z,12690
2023-03-25T13:03:07.957Z,10327
2023-03-25T13:06:07.344Z,17533
2023-03-25T13:09:07.409Z,53247
2023-03-25T13:12:07.376Z,17453
2023-03-25T13:15:07.432Z,42187
2023-03-25T13:18:07.811Z,51113
2023-03-25T13:21:16.769Z,26763
2023-03-25T13:24:07.440Z,47417
2023-03-25T13:27:07.438Z,55483
2023-03-25T13:30:07.534Z,23377
2023-03-25T13:33:07.552Z,24273
2023-03-25T13:36:07.650Z,20143
2023-03-25T13:39:07.414Z,10003
2023-03-25T13:42:07.351Z,19943
2023-03-25T13:45:07.537Z,33007
2023-03-25T13:48:09.443Z,40983
2023-03-25T13:51:07.578Z,19847
2023-03-25T13:54:07.425Z,21427
2023-03-25T13:57:07.667Z,24277
2023-03-25T14:00:07.634Z,17087
2023-03-25T14:03:07.746Z,11583
2023-03-25T14:06:07.451Z,10933
2023-03-25T14:09:07.466Z,13697
2023-03-25T14:12:07.455Z,14113
2023-03-25T14:15:07.658Z,31047
2023-03-25T14:18:07.758Z,18183
2023-03-25T14:21:07.434Z,11173
2023-03-25T14:24:07.417Z,15017
2023-03-25T14:27:07.482Z,12700
2023-03-25T14:30:07.423Z,13360
2023-03-25T14:33:07.742Z,9777
2023-03-25T14:36:07.496Z,5920
2023-03-25T14:39:07.370Z,8687
2023-03-25T14:42:07.421Z,11087
2023-03-25T14:45:07.401Z,10603
2023-03-25T14:48:27.106Z,9420
2023-03-25T14:51:07.600Z,9573
2023-03-25T14:54:07.451Z,14250
2023-03-25T14:57:07.586Z,17873
2023-03-25T15:00:07.513Z,26143
2023-03-25T15:03:07.743Z,16653
2023-03-25T15:06:07.965Z,10070
2023-03-25T15:09:07.481Z,4810
2023-03-25T15:12:07.361Z,3240
2023-03-25T15:15:07.432Z,5173
2023-03-25T15:18:08.063Z,6290
2023-03-25T15:21:07.407Z,7217
2023-03-25T15:24:07.461Z,5033
2023-03-25T15:27:07.306Z,10050
2023-03-25T15:30:07.461Z,7803
2023-03-25T15:33:07.631Z,6787
2023-03-25T15:36:10.147Z,3513
2023-03-25T15:39:07.440Z,7457
2023-03-25T15:42:07.370Z,9057
2023-03-25T15:45:07.399Z,7953
2023-03-25T15:48:07.570Z,6813
2023-03-25T15:51:07.395Z,5313
2023-03-25T15:54:07.407Z,5630
2023-03-25T15:57:07.592Z,5733
2023-03-25T16:00:07.528Z,15107
2023-03-25T16:03:08.110Z,13597
2023-03-25T16:06:07.395Z,10177
2023-03-25T16:09:07.375Z,6710
2023-03-25T16:12:07.433Z,4277
2023-03-25T16:15:07.443Z,2730
2023-03-25T16:18:07.632Z,2027
2023-03-25T16:21:07.358Z,1280
2023-03-25T16:24:07.401Z,1073
2023-03-25T16:27:07.353Z,723
2023-03-25T16:30:07.698Z,357
2023-03-25T16:33:07.581Z,197
2023-03-25T16:36:07.962Z,230
2023-03-25T16:39:07.349Z,307
2023-03-25T16:42:07.386Z,297
2023-03-25T16:45:07.621Z,250
2023-03-25T16:48:07.600Z,167
2023-03-25T16:51:07.389Z,83
2023-03-25T16:54:07.493Z,83
2023-03-25T16:57:07.600Z,173
2023-03-25T17:00:07.548Z,537
2023-03-25T17:03:07.826Z,1643
2023-03-25T17:06:07.771Z,2203
2023-03-25T17:09:07.434Z,1523
2023-03-25T17:12:07.434Z,1187
2023-03-25T17:15:07.458Z,1227
2023-03-25T17:18:07.793Z,1040
2023-03-25T17:21:07.437Z,707
2023-03-25T17:24:07.351Z,880
2023-03-25T17:27:07.388Z,753
2023-03-25T17:30:07.690Z,567
2023-03-25T17:33:07.673Z,423
2023-03-25T17:36:07.661Z,327
2023-03-25T17:39:10.562Z,253
2023-03-25T17:42:07.394Z,187
2023-03-25T17:45:07.394Z,130
2023-03-25T17:48:07.347Z,83
2023-03-25T17:51:07.312Z,53
2023-03-25T17:54:07.331Z,30
2023-03-25T17:57:07.563Z,17
2023-03-25T18:00:07.452Z,10
2023-03-25T18:03:07.800Z,7
2023-03-25T18:06:07.566Z,3
2023-03-25T18:09:07.414Z,0
2023-03-25T18:12:07.560Z,0
2023-03-25T18:15:07.448Z,0
2023-03-25T18:18:07.449Z,0
2023-03-25T18:21:07.318Z,0
2023-03-25T18:24:07.288Z,0
2023-03-25T18:27:07.337Z,0
2023-03-25T18:30:07.343Z,0
2023-03-25T18:33:07.692Z,0
2023-03-25T18:36:07.507Z,0
2023-03-25T18:39:07.318Z,0
2023-03-25T18:42:07.393Z,0
2023-03-25T18:45:07.351Z,0
2023-03-25T18:48:07.538Z,0
2023-03-25T18:51:07.342Z,0
2023-03-25T18:54:07.333Z,0
2023-03-25T18:57:07.600Z,0
2023-03-25T19:00:07.447Z,0
2023-03-25T19:03:07.743Z,0
2023-03-25T19:06:07.397Z,0
2023-03-25T19:09:07.388Z,0
2023-03-25T19:12:07.337Z,0
2023-03-25T19:15:07.462Z,0
2023-03-25T19:18:07.581Z,0
2023-03-25T19:21:07.372Z,0
2023-03-25T19:24:07.358Z,0
2023-03-25T19:27:07.387Z,0
2023-03-25T19:30:07.366Z,0
2023-03-25T19:33:07.539Z,0
2023-03-25T19:36:07.760Z,0
2023-03-25T19:39:07.395Z,0
2023-03-25T19:42:07.363Z,0
2023-03-25T19:45:07.434Z,0
2023-03-25T19:48:07.664Z,0
2023-03-25T19:51:07.365Z,0
2023-03-25T19:54:07.344Z,0
2023-03-25T19:57:07.728Z,0
2023-03-25T20:00:07.462Z,0
2023-03-25T20:03:07.942Z,0
2023-03-25T20:06:07.409Z,0
2023-03-25T20:09:07.297Z,0
2023-03-25T20:12:07.379Z,0
2023-03-25T20:15:07.397Z,0
2023-03-25T20:18:07.592Z,0
2023-03-25T20:21:07.506Z,0
2023-03-25T20:24:07.380Z,0
2023-03-25T20:27:07.320Z,0
2023-03-25T20:30:07.412Z,0
2023-03-25T20:33:07.525Z,0
2023-03-25T20:36:07.591Z,0
2023-03-25T20:39:07.384Z,0
2023-03-25T20:42:07.325Z,0
2023-03-25T20:45:07.404Z,0
2023-03-25T20:48:07.493Z,0
2023-03-25T20:51:07.356Z,0
2023-03-25T20:54:07.358Z,0
2023-03-25T20:57:07.649Z,0
2023-03-25T21:00:07.606Z,0
2023-03-25T21:03:07.639Z,0
2023-03-25T21:06:30.883Z,0
2023-03-25T21:09:14.450Z,0
2023-03-25T21:12:07.386Z,0
2023-03-25T21:15:07.326Z,0
2023-03-25T21:18:08.389Z,0
2023-03-25T21:21:07.349Z,0
2023-03-25T21:24:07.314Z,0
2023-03-25T21:27:07.369Z,0
2023-03-25T21:30:07.313Z,0
2023-03-25T21:33:07.479Z,0
2023-03-25T21:36:07.554Z,0
2023-03-25T21:39:07.336Z,0
2023-03-25T21:42:16.653Z,0
2023-03-25T21:45:07.590Z,0
2023-03-25T21:48:07.673Z,0
2023-03-25T21:51:07.332Z,0
2023-03-25T21:54:07.401Z,0
2023-03-25T21:57:07.474Z,0
2023-03-25T22:00:07.381Z,0
2023-03-25T22:03:07.450Z,0
2023-03-25T22:06:08.664Z,0
2023-03-25T22:09:07.333Z,0
2023-03-25T22:12:07.378Z,0
2023-03-25T22:15:07.310Z,0
2023-03-25T22:18:07.801Z,0
2023-03-25T22:21:07.327Z,0
2023-03-25T22:24:07.282Z,0
2023-03-25T22:27:07.296Z,0
2023-03-25T22:30:07.354Z,0
2023-03-25T22:33:07.517Z,0
2023-03-25T22:36:07.559Z,0
2023-03-25T22:39:07.392Z,0
2023-03-25T22:42:07.396Z,0
2023-03-25T22:45:07.390Z,0
2023-03-25T22:48:07.556Z,0
2023-03-25T22:51:07.702Z,0
2023-03-25T22:54:07.395Z,0
2023-03-25T22:57:07.551Z,0
2023-03-25T23:00:08.203Z,0
2023-03-25T23:03:07.765Z,0
2023-03-25T23:06:07.357Z,0
2023-03-25T23:09:07.398Z,0
2023-03-25T23:12:07.375Z,0
2023-03-25T23:15:07.466Z,0
2023-03-25T23:18:07.501Z,0
2023-03-25T23:21:07.383Z,0
2023-03-25T23:24:07.497Z,0
2023-03-25T23:27:07.358Z,0
2023-03-25T23:30:07.390Z,0
2023-03-25T23:33:07.553Z,0
2023-03-25T23:36:07.651Z,0
2023-03-25T23:39:07.492Z,0
2023-03-25T23:42:07.330Z,0
2023-03-25T23:45:07.402Z,0
2023-03-25T23:48:07.624Z,0
2023-03-25T23:51:07.352Z,0
2023-03-25T23:54:07.381Z,0
2023-03-25T23:57:07.589Z,0
